Time;durP1;ratioP1;P1;durP2;ratioP2;P2;SDS_P1;SDS_P2;PMS_P1;PMS_P2;Temp;Humidity;BMP_temperature;BMP_pressure;BME280_temperature;BME280_humidity;BME280_pressure;Samples;Min_cycle;Max_cycle;Signal;HPM_P1;HPM_P2
2023/03/16 06:56:14;;;;;;;8.43;6.60;;;;;;;;;;5073163;27;21281;-84
2023/03/16 06:59:21;;;;;;;8.80;6.33;;;;;;;;;;4977687;28;20667;-84
2023/03/16 07:02:26;;;;;;;9.30;6.47;;;;;;;;;;5012695;28;99897;-84
2023/03/16 07:05:30;;;;;;;9.33;6.70;;;;;;;;;;4979809;28;21034;-84
2023/03/16 07:08:35;;;;;;;11.47;7.03;;;;;;;;;;4969751;28;20541;-86
2023/03/16 07:11:40;;;;;;;7.43;5.90;;;;;;;;;;4981433;28;20214;-84
2023/03/16 07:14:44;;;;;;;6.67;5.50;;;;;;;;;;5000886;28;20639;-83
2023/03/16 07:17:51;;;;;;;6.77;5.47;;;;;;;;;;5002100;28;20559;-83
2023/03/16 07:20:57;;;;;;;7.43;5.63;;;;;;;;;;5014220;28;20597;-82
2023/03/16 07:24:04;;;;;;;5.87;5.10;;;;;;;;;;4993643;28;20562;-83
2023/03/16 07:27:14;;;;;;;6.70;5.03;;;;;;;;;;4994938;28;20178;-83
2023/03/16 07:30:20;;;;;;;7.27;5.80;;;;;;;;;;4990774;28;20218;-83
2023/03/16 07:33:26;;;;;;;5.53;4.67;;;;;;;;;;4998551;28;20582;-83
2023/03/16 07:36:31;;;;;;;6.73;5.03;;;;;;;;;;4991407;28;20558;-83
2023/03/16 07:39:38;;;;;;;6.77;5.17;;;;;;;;;;5000837;28;20174;-83
2023/03/16 07:42:51;;;;;;;7.37;5.87;;;;;;;;;;4998588;28;20186;-84
2023/03/16 07:46:04;;;;;;;6.23;5.57;;;;;;;;;;4978732;28;20174;-82
2023/03/16 07:49:09;;;;;;;5.57;4.83;;;;;;;;;;5001251;28;20182;-83
2023/03/16 07:52:15;;;;;;;5.60;5.00;;;;;;;;;;4988481;28;20550;-84
2023/03/16 07:55:20;;;;;;;9.70;5.50;;;;;;;;;;4977043;28;20202;-82
2023/03/16 07:58:25;;;;;;;7.13;4.97;;;;;;;;;;4990769;28;20205;-82
2023/03/16 08:01:30;;;;;;;8.00;4.80;;;;;;;;;;4965847;28;20679;-83
2023/03/16 08:04:35;;;;;;;5.87;4.53;;;;;;;;;;4988631;28;20559;-82
2023/03/16 08:07:40;;;;;;;9.93;5.30;;;;;;;;;;4994953;28;20555;-83
2023/03/16 08:10:52;;;;;;;9.33;5.20;;;;;;;;;;4989213;28;20217;-83
2023/03/16 08:13:58;;;;;;;7.50;5.10;;;;;;;;;;4980418;28;20186;-83
2023/03/16 08:17:13;;;;;;;6.10;4.83;;;;;;;;;;4976191;28;20198;-83
2023/03/16 08:20:18;;;;;;;7.00;5.03;;;;;;;;;;4989780;28;20726;-83
2023/03/16 08:23:24;;;;;;;5.40;4.87;;;;;;;;;;4978947;28;20178;-83
2023/03/16 08:26:29;;;;;;;5.83;4.90;;;;;;;;;;4985452;28;20178;-84
2023/03/16 08:29:36;;;;;;;6.57;4.93;;;;;;;;;;4979889;28;20202;-83
2023/03/16 08:32:42;;;;;;;6.27;5.33;;;;;;;;;;4983507;28;20198;-83
2023/03/16 08:35:47;;;;;;;6.83;4.70;;;;;;;;;;4969338;28;20183;-84
2023/03/16 08:38:53;;;;;;;6.40;5.07;;;;;;;;;;4991168;28;20183;-82
2023/03/16 08:41:57;;;;;;;6.40;4.83;;;;;;;;;;4986068;28;20222;-85
2023/03/16 08:45:09;;;;;;;6.30;4.70;;;;;;;;;;4988342;28;20206;-83
2023/03/16 08:48:15;;;;;;;6.50;4.93;;;;;;;;;;4989690;28;20551;-86
2023/03/16 08:51:22;;;;;;;6.70;4.87;;;;;;;;;;4974404;28;20675;-83
2023/03/16 08:54:26;;;;;;;5.97;5.07;;;;;;;;;;4978267;28;20210;-85
2023/03/16 08:57:32;;;;;;;7.13;5.47;;;;;;;;;;4974794;28;20186;-84
2023/03/16 09:00:40;;;;;;;7.40;5.67;;;;;;;;;;4984982;28;20214;-88
2023/03/16 09:03:47;;;;;;;6.87;5.87;;;;;;;;;;4977724;28;20182;-87
2023/03/16 09:06:52;;;;;;;7.30;5.77;;;;;;;;;;4968151;28;20191;-86
2023/03/16 09:09:56;;;;;;;6.10;5.50;;;;;;;;;;4988046;28;20217;-84
2023/03/16 09:13:01;;;;;;;7.77;5.37;;;;;;;;;;4975519;28;20182;-86
2023/03/16 09:16:07;;;;;;;9.23;5.53;;;;;;;;;;4982651;28;20174;-86
2023/03/16 09:19:12;;;;;;;6.03;5.07;;;;;;;;;;4987334;28;20186;-85
2023/03/16 09:22:18;;;;;;;6.80;5.47;;;;;;;;;;4975023;28;20178;-87
2023/03/16 09:25:24;;;;;;;7.97;4.70;;;;;;;;;;4979071;28;20225;-85
2023/03/16 09:28:30;;;;;;;6.10;4.83;;;;;;;;;;4995595;28;20198;-88
2023/03/16 09:31:35;;;;;;;6.07;5.13;;;;;;;;;;4987421;28;20209;-85
2023/03/16 09:34:39;;;;;;;5.93;4.57;;;;;;;;;;4976857;28;20194;-85
2023/03/16 09:37:44;;;;;;;6.50;5.40;;;;;;;;;;4981327;28;20194;-85
2023/03/16 09:40:57;;;;;;;5.60;4.63;;;;;;;;;;5003481;28;20213;-85
2023/03/16 09:44:30;;;;;;;6.43;4.80;;;;;;;;;;5010336;28;20198;-85
2023/03/16 09:47:36;;;;;;;10.33;4.70;;;;;;;;;;4974192;28;20544;-84
2023/03/16 09:50:41;;;;;;;6.83;5.53;;;;;;;;;;4978550;28;20217;-85
2023/03/16 09:53:51;;;;;;;6.47;4.77;;;;;;;;;;4977217;28;20198;-85
2023/03/16 09:56:56;;;;;;;6.47;5.13;;;;;;;;;;4991834;28;20186;-84
2023/03/16 10:00:19;;;;;;;7.30;5.03;;;;;;;;;;4982141;28;20703;-83
2023/03/16 10:03:48;;;;;;;6.27;5.00;;;;;;;;;;4983948;28;20183;-82
2023/03/16 10:07:11;;;;;;;7.80;5.20;;;;;;;;;;4990795;28;20178;-83
2023/03/16 10:10:48;;;;;;;5.30;4.47;;;;;;;;;;4991142;28;20214;-84
2023/03/16 10:14:16;;;;;;;6.10;5.00;;;;;;;;;;5003103;28;20162;-85
2023/03/16 10:17:26;;;;;;;7.53;5.17;;;;;;;;;;4965993;28;20178;-85
2023/03/16 10:20:33;;;;;;;6.83;5.10;;;;;;;;;;4988329;28;20229;-85
2023/03/16 10:23:38;;;;;;;5.47;4.97;;;;;;;;;;4978861;28;20202;-83
2023/03/16 10:26:49;;;;;;;7.67;5.60;;;;;;;;;;4998525;28;20671;-83
2023/03/16 10:29:53;;;;;;;6.93;6.03;;;;;;;;;;4980911;28;20916;-84
2023/03/16 10:33:04;;;;;;;7.07;6.00;;;;;;;;;;4966122;28;20182;-82
2023/03/16 10:36:24;;;;;;;8.87;6.57;;;;;;;;;;4995491;28;20174;-84
2023/03/16 10:39:35;;;;;;;8.47;6.57;;;;;;;;;;5004338;28;20187;-84
2023/03/16 10:42:40;;;;;;;7.50;6.30;;;;;;;;;;4990777;28;20182;-83
2023/03/16 10:45:45;;;;;;;12.87;6.00;;;;;;;;;;4993241;28;20210;-81
2023/03/16 10:49:00;;;;;;;6.73;5.90;;;;;;;;;;4988101;28;20190;-82
2023/03/16 10:52:23;;;;;;;6.77;5.93;;;;;;;;;;4986908;28;20198;-83
2023/03/16 10:55:33;;;;;;;7.17;5.50;;;;;;;;;;4987219;28;20206;-83
2023/03/16 10:58:41;;;;;;;7.77;6.17;;;;;;;;;;4999924;28;20182;-81
2023/03/16 11:01:48;;;;;;;8.50;6.40;;;;;;;;;;4999864;28;20544;-81
2023/03/16 11:04:54;;;;;;;9.07;6.67;;;;;;;;;;4975847;28;20528;-82
2023/03/16 11:07:59;;;;;;;10.60;7.00;;;;;;;;;;4989497;28;20198;-83
2023/03/16 11:11:12;;;;;;;7.77;5.80;;;;;;;;;;5000340;28;20261;-83
2023/03/16 11:14:25;;;;;;;8.33;5.93;;;;;;;;;;4997902;28;20190;-83
2023/03/16 11:17:43;;;;;;;8.97;6.50;;;;;;;;;;4985883;28;20187;-86
2023/03/16 11:20:53;;;;;;;9.13;6.33;;;;;;;;;;4972727;28;20222;-85
2023/03/16 11:24:15;;;;;;;8.00;6.27;;;;;;;;;;4983519;28;20186;-84
2023/03/16 11:27:26;;;;;;;8.20;6.53;;;;;;;;;;4986443;28;20195;-84
2023/03/16 11:30:40;;;;;;;7.50;6.30;;;;;;;;;;5001400;28;20222;-84
2023/03/16 11:33:46;;;;;;;7.27;5.63;;;;;;;;;;4992237;28;20186;-84
2023/03/16 11:36:54;;;;;;;7.23;5.90;;;;;;;;;;4994128;28;20631;-85
2023/03/16 11:40:16;;;;;;;7.57;5.80;;;;;;;;;;4991661;28;20579;-84
2023/03/16 11:43:43;;;;;;;9.23;6.83;;;;;;;;;;4987150;28;20190;-84
2023/03/16 11:46:59;;;;;;;8.73;7.20;;;;;;;;;;4997883;28;20215;-83
2023/03/16 11:50:13;;;;;;;10.83;7.50;;;;;;;;;;4981985;28;20580;-85
2023/03/16 11:53:43;;;;;;;7.97;6.27;;;;;;;;;;4990141;28;20628;-83
2023/03/16 11:56:53;;;;;;;8.37;5.83;;;;;;;;;;5005419;28;20170;-84
2023/03/16 12:00:18;;;;;;;8.10;5.97;;;;;;;;;;4974510;28;20218;-84
2023/03/16 12:04:08;;;;;;;8.50;6.20;;;;;;;;;;4974450;28;20182;-83
2023/03/16 12:07:44;;;;;;;7.17;5.33;;;;;;;;;;4974757;28;20210;-85
2023/03/16 12:11:11;;;;;;;6.63;5.73;;;;;;;;;;4975014;28;20549;-84
2023/03/16 12:14:23;;;;;;;7.83;5.63;;;;;;;;;;4974515;28;20183;-84
2023/03/16 12:17:31;;;;;;;6.33;5.10;;;;;;;;;;4985859;28;20541;-84
2023/03/16 12:20:51;;;;;;;5.87;5.00;;;;;;;;;;4973719;28;20699;-84
2023/03/16 12:24:00;;;;;;;6.10;4.90;;;;;;;;;;4975550;28;20628;-84
2023/03/16 12:27:05;;;;;;;6.87;4.93;;;;;;;;;;4985258;28;20202;-84
2023/03/16 12:30:35;;;;;;;6.53;5.23;;;;;;;;;;4974194;28;20218;-84
2023/03/16 12:33:45;;;;;;;6.13;4.53;;;;;;;;;;4984685;28;20182;-85
2023/03/16 12:37:14;;;;;;;7.53;5.00;;;;;;;;;;4985330;28;20535;-85
2023/03/16 12:40:34;;;;;;;6.53;4.07;;;;;;;;;;4995728;28;20217;-85
2023/03/16 12:43:51;;;;;;;6.33;3.87;;;;;;;;;;4973002;28;20183;-85
2023/03/16 12:47:21;;;;;;;4.33;3.93;;;;;;;;;;4984241;28;20213;-85
2023/03/16 12:50:26;;;;;;;4.67;3.50;;;;;;;;;;4973650;28;20221;-84
2023/03/16 12:53:53;;;;;;;4.77;3.70;;;;;;;;;;4962180;28;20186;-84
2023/03/16 12:57:06;;;;;;;8.43;4.17;;;;;;;;;;4972842;28;20182;-85
2023/03/16 13:00:13;;;;;;;4.97;4.40;;;;;;;;;;4972754;28;20214;-85
2023/03/16 13:03:21;;;;;;;6.10;4.20;;;;;;;;;;4984201;28;20186;-84
2023/03/16 13:06:32;;;;;;;7.23;4.13;;;;;;;;;;4973076;28;20206;-85
2023/03/16 13:09:43;;;;;;;4.10;3.57;;;;;;;;;;4995514;28;20190;-85
2023/03/16 13:12:47;;;;;;;7.87;3.70;;;;;;;;;;4973306;28;20183;-85
2023/03/16 13:16:05;;;;;;;6.03;3.80;;;;;;;;;;4973002;28;20189;-85
2023/03/16 13:19:37;;;;;;;4.57;3.63;;;;;;;;;;4983902;28;20182;-85
2023/03/16 13:22:52;;;;;;;5.27;3.30;;;;;;;;;;4983023;28;20193;-85
2023/03/16 13:26:35;;;;;;;5.80;3.57;;;;;;;;;;4985398;28;20222;-85
2023/03/16 13:29:39;;;;;;;8.30;3.30;;;;;;;;;;4986146;28;20194;-84
2023/03/16 13:32:44;;;;;;;4.37;3.27;;;;;;;;;;4979016;28;20178;-84
2023/03/16 13:35:51;;;;;;;4.23;3.23;;;;;;;;;;4985014;28;20170;-85
2023/03/16 13:39:13;;;;;;;5.17;3.13;;;;;;;;;;4976033;28;20182;-85
2023/03/16 13:42:19;;;;;;;4.77;3.37;;;;;;;;;;4998038;28;20187;-84
2023/03/16 13:45:31;;;;;;;4.60;3.00;;;;;;;;;;4986155;28;20178;-85
2023/03/16 13:48:36;;;;;;;3.60;2.50;;;;;;;;;;4992906;28;20186;-85
2023/03/16 13:51:43;;;;;;;4.33;3.23;;;;;;;;;;4980920;28;20218;-84
2023/03/16 13:54:48;;;;;;;5.07;3.40;;;;;;;;;;4973231;28;20202;-84
2023/03/16 13:57:53;;;;;;;5.47;3.50;;;;;;;;;;4987885;28;20178;-84
2023/03/16 14:01:00;;;;;;;10.70;4.20;;;;;;;;;;4975002;28;20217;-85
2023/03/16 14:04:12;;;;;;;3.73;3.10;;;;;;;;;;4998793;28;20182;-84
2023/03/16 14:07:19;;;;;;;3.50;2.90;;;;;;;;;;4972913;28;20205;-84
2023/03/16 14:10:28;;;;;;;2.83;2.57;;;;;;;;;;4987026;28;20214;-85
2023/03/16 14:13:35;;;;;;;3.80;2.97;;;;;;;;;;4994740;28;20190;-84
2023/03/16 14:16:39;;;;;;;4.43;2.90;;;;;;;;;;4985627;28;20532;-85
2023/03/16 14:19:48;;;;;;;4.77;3.10;;;;;;;;;;4975946;28;20202;-84
2023/03/16 14:22:52;;;;;;;4.30;2.70;;;;;;;;;;4980840;28;20178;-85
2023/03/16 14:25:56;;;;;;;6.17;2.80;;;;;;;;;;4994037;28;20226;-84
2023/03/16 14:29:14;;;;;;;3.20;2.57;;;;;;;;;;4963210;28;20202;-84
2023/03/16 14:32:30;;;;;;;4.43;2.63;;;;;;;;;;4976475;28;20186;-83
2023/03/16 14:35:42;;;;;;;3.17;2.20;;;;;;;;;;4989160;28;20182;-82
2023/03/16 14:38:47;;;;;;;5.50;2.80;;;;;;;;;;4996652;28;20546;-84
2023/03/16 14:41:51;;;;;;;3.53;2.33;;;;;;;;;;4982949;28;20214;-84
2023/03/16 14:44:58;;;;;;;3.60;2.60;;;;;;;;;;4982451;28;20182;-84
2023/03/16 14:48:09;;;;;;;3.20;2.73;;;;;;;;;;4982560;28;20206;-84
2023/03/16 14:51:13;;;;;;;4.50;3.20;;;;;;;;;;4974698;28;20213;-84
2023/03/16 14:54:23;;;;;;;4.43;2.50;;;;;;;;;;4982043;28;20209;-84
2023/03/16 14:57:27;;;;;;;3.70;2.87;;;;;;;;;;4972272;28;20178;-84
2023/03/16 15:00:31;;;;;;;4.13;2.80;;;;;;;;;;4982695;28;20213;-84
2023/03/16 15:03:36;;;;;;;5.83;2.90;;;;;;;;;;4982942;28;20635;-84
2023/03/16 15:06:41;;;;;;;2.67;2.47;;;;;;;;;;4985221;28;20213;-84
2023/03/16 15:09:45;;;;;;;5.47;3.10;;;;;;;;;;4987086;28;20174;-84
2023/03/16 15:12:52;;;;;;;5.07;2.80;;;;;;;;;;4998241;28;20178;-83
2023/03/16 15:15:56;;;;;;;6.00;2.93;;;;;;;;;;4998310;28;20182;-84
2023/03/16 15:19:01;;;;;;;5.33;3.10;;;;;;;;;;4986552;28;20190;-84
2023/03/16 15:22:05;;;;;;;3.77;2.73;;;;;;;;;;4965556;28;20186;-84
2023/03/16 15:25:38;;;;;;;4.93;2.77;;;;;;;;;;4976697;28;20539;-84
2023/03/16 15:28:42;;;;;;;4.43;2.57;;;;;;;;;;4998651;28;20178;-84
2023/03/16 15:31:46;;;;;;;4.43;2.60;;;;;;;;;;4987873;28;20214;-83
2023/03/16 15:34:50;;;;;;;4.40;2.83;;;;;;;;;;4965030;28;20178;-83
2023/03/16 15:37:55;;;;;;;3.87;2.50;;;;;;;;;;4976286;28;20174;-84
2023/03/16 15:41:00;;;;;;;2.93;2.40;;;;;;;;;;4986716;28;20217;-85
2023/03/16 15:58:50;;;;;;;5.77;2.90;;;;;;;;;;4999118;28;20201;-86
2023/03/16 16:01:54;;;;;;;4.17;2.73;;;;;;;;;;4976822;28;20706;-85
2023/03/16 16:04:58;;;;;;;3.33;2.80;;;;;;;;;;5001163;28;20182;-86
2023/03/16 16:08:03;;;;;;;4.43;2.90;;;;;;;;;;4999836;28;20205;-85
2023/03/16 16:11:19;;;;;;;3.50;3.10;;;;;;;;;;4992806;28;20225;-86
2023/03/16 16:14:25;;;;;;;5.37;4.00;;;;;;;;;;4997316;28;20178;-85
2023/03/16 16:17:29;;;;;;;5.93;3.23;;;;;;;;;;4991277;28;20174;-85
2023/03/16 16:20:33;;;;;;;4.50;3.50;;;;;;;;;;4995815;28;20221;-85
2023/03/16 16:23:38;;;;;;;4.43;3.50;;;;;;;;;;4964090;28;20194;-86
2023/03/16 16:26:44;;;;;;;4.87;3.37;;;;;;;;;;4984558;28;20209;-86
2023/03/16 16:29:47;;;;;;;4.57;3.50;;;;;;;;;;4985266;28;20182;-85
2023/03/16 16:32:53;;;;;;;4.70;3.77;;;;;;;;;;5000366;28;20210;-85
2023/03/16 16:36:00;;;;;;;5.90;3.80;;;;;;;;;;4985725;28;20198;-85
2023/03/16 16:39:04;;;;;;;6.73;3.73;;;;;;;;;;4993795;28;20194;-85
2023/03/16 16:42:15;;;;;;;4.30;3.63;;;;;;;;;;4991347;28;20648;-85
2023/03/16 16:45:22;;;;;;;3.80;3.40;;;;;;;;;;4986177;28;20183;-85
2023/03/16 16:48:40;;;;;;;5.03;3.60;;;;;;;;;;4992167;28;20209;-83
2023/03/16 16:51:45;;;;;;;5.23;3.47;;;;;;;;;;4963151;28;20217;-85
2023/03/16 16:54:50;;;;;;;5.00;3.53;;;;;;;;;;4996663;28;20182;-84
2023/03/16 16:57:54;;;;;;;5.23;3.47;;;;;;;;;;4984414;28;20194;-85
2023/03/16 17:00:58;;;;;;;5.47;3.47;;;;;;;;;;4973047;28;20218;-86
2023/03/16 17:04:02;;;;;;;4.03;3.40;;;;;;;;;;4963719;28;20178;-85
2023/03/16 17:07:10;;;;;;;5.90;3.53;;;;;;;;;;4973162;28;20202;-86
2023/03/16 17:10:22;;;;;;;5.40;3.53;;;;;;;;;;4982607;28;20214;-85
2023/03/16 17:13:39;;;;;;;3.67;3.30;;;;;;;;;;4980398;28;20178;-85
2023/03/16 17:16:46;;;;;;;4.70;3.70;;;;;;;;;;4986624;28;20175;-86
2023/03/16 17:19:50;;;;;;;7.77;3.63;;;;;;;;;;4988550;28;20186;-87
2023/03/16 17:22:57;;;;;;;4.57;3.37;;;;;;;;;;4972859;28;20198;-86
2023/03/16 17:26:19;;;;;;;3.33;3.03;;;;;;;;;;4972313;28;20202;-86
2023/03/16 17:29:26;;;;;;;4.73;3.60;;;;;;;;;;4982379;28;20174;-86
2023/03/16 17:32:30;;;;;;;5.93;4.00;;;;;;;;;;4986349;28;20198;-86
2023/03/16 17:35:35;;;;;;;6.27;3.50;;;;;;;;;;4972323;28;20181;-87
2023/03/16 17:38:40;;;;;;;4.67;3.47;;;;;;;;;;4978895;28;20183;-87
2023/03/16 17:41:44;;;;;;;3.63;3.10;;;;;;;;;;4975196;28;20607;-87
2023/03/16 17:44:50;;;;;;;3.70;3.30;;;;;;;;;;4983307;28;20631;-88
2023/03/16 17:47:54;;;;;;;5.00;3.30;;;;;;;;;;4986481;28;20206;-87
2023/03/16 17:50:59;;;;;;;4.10;3.17;;;;;;;;;;4985177;28;20230;-87
2023/03/16 17:54:04;;;;;;;4.60;3.17;;;;;;;;;;4992785;28;20636;-86
2023/03/16 17:57:15;;;;;;;5.77;3.60;;;;;;;;;;4972077;28;20182;-86
2023/03/16 18:00:34;;;;;;;4.13;3.57;;;;;;;;;;4973229;28;20214;-86
2023/03/16 18:03:38;;;;;;;5.80;3.90;;;;;;;;;;4974675;28;20206;-86
2023/03/16 18:06:45;;;;;;;4.70;3.73;;;;;;;;;;4972828;28;20206;-86
2023/03/16 18:09:50;;;;;;;5.30;3.80;;;;;;;;;;4972772;28;20186;-89
2023/03/16 18:13:01;;;;;;;4.47;3.70;;;;;;;;;;4962570;28;20201;-87
2023/03/16 18:16:06;;;;;;;4.83;3.40;;;;;;;;;;4976091;28;20191;-88
2023/03/16 18:19:24;;;;;;;5.83;4.07;;;;;;;;;;4983241;28;20174;-88
2023/03/16 18:22:57;;;;;;;6.73;4.47;;;;;;;;;;4991221;28;20186;-87
2023/03/16 18:26:02;;;;;;;5.53;4.47;;;;;;;;;;4975434;28;20403;-86
2023/03/16 18:29:07;;;;;;;6.03;4.20;;;;;;;;;;4973792;28;20232;-86
2023/03/16 18:32:27;;;;;;;5.90;4.13;;;;;;;;;;4973228;28;20659;-87
2023/03/16 18:35:32;;;;;;;7.47;4.43;;;;;;;;;;4972637;28;20186;-86
2023/03/16 18:38:42;;;;;;;6.27;4.40;;;;;;;;;;4972827;28;20190;-88
2023/03/16 18:41:47;;;;;;;6.33;4.50;;;;;;;;;;4984613;28;20221;-90
2023/03/16 18:44:51;;;;;;;6.43;4.73;;;;;;;;;;4962281;28;20202;-88
2023/03/16 18:47:55;;;;;;;5.93;4.33;;;;;;;;;;4983828;28;20209;-87
2023/03/16 18:51:00;;;;;;;6.77;4.47;;;;;;;;;;4971183;28;20218;-88
2023/03/16 18:54:23;;;;;;;5.43;4.30;;;;;;;;;;4971150;28;20635;-87
2023/03/16 18:57:28;;;;;;;7.20;4.83;;;;;;;;;;4971299;28;20182;-89
2023/03/16 19:00:33;;;;;;;6.57;4.50;;;;;;;;;;4982500;28;20222;-87
2023/03/16 19:03:42;;;;;;;7.13;4.40;;;;;;;;;;4959908;28;20175;-88
2023/03/16 19:06:47;;;;;;;6.23;4.37;;;;;;;;;;4971639;28;20174;-88
2023/03/16 19:09:52;;;;;;;6.77;4.73;;;;;;;;;;4972108;28;20170;-89
2023/03/16 19:12:56;;;;;;;8.30;4.80;;;;;;;;;;4982462;28;20182;-89
2023/03/16 19:16:02;;;;;;;6.10;4.80;;;;;;;;;;4994977;28;20201;-88
2023/03/16 19:19:07;;;;;;;9.20;4.37;;;;;;;;;;4960340;28;20183;-89
2023/03/16 19:22:15;;;;;;;6.83;4.33;;;;;;;;;;4963724;28;20565;-88
2023/03/16 19:25:27;;;;;;;6.43;4.50;;;;;;;;;;4976759;28;20289;-89
2023/03/16 19:28:38;;;;;;;6.83;4.97;;;;;;;;;;4970595;28;20225;-88
2023/03/16 19:31:42;;;;;;;6.43;4.60;;;;;;;;;;4970908;28;20226;-89
2023/03/16 19:34:46;;;;;;;6.77;4.90;;;;;;;;;;4970636;28;20178;-87
2023/03/16 19:37:50;;;;;;;6.73;4.60;;;;;;;;;;4970553;28;20194;-89
2023/03/16 19:40:58;;;;;;;6.60;4.80;;;;;;;;;;4971177;28;20222;-89
2023/03/16 19:44:24;;;;;;;9.20;5.47;;;;;;;;;;4971223;28;20202;-89
2023/03/16 19:47:30;;;;;;;5.90;4.53;;;;;;;;;;4971275;28;20210;-88
2023/03/16 19:50:34;;;;;;;5.73;4.40;;;;;;;;;;4970689;28;20222;-87
2023/03/16 19:53:39;;;;;;;8.10;4.80;;;;;;;;;;4963582;28;20182;-88
2023/03/16 19:56:43;;;;;;;6.63;5.23;;;;;;;;;;4974437;28;20182;-89
2023/03/16 19:59:52;;;;;;;5.90;4.47;;;;;;;;;;4974094;28;20178;-88
2023/03/16 20:02:56;;;;;;;9.47;5.27;;;;;;;;;;4987355;28;20210;-89
2023/03/16 20:06:01;;;;;;;6.37;4.97;;;;;;;;;;4988368;28;20178;-89
2023/03/16 20:09:09;;;;;;;7.63;4.70;;;;;;;;;;4975442;28;20210;-88
2023/03/16 20:12:22;;;;;;;7.70;4.70;;;;;;;;;;4974294;28;20636;-88
2023/03/16 20:15:31;;;;;;;5.60;4.57;;;;;;;;;;4963361;28;20186;-88
2023/03/16 20:18:35;;;;;;;6.47;4.53;;;;;;;;;;4973665;28;20186;-87
2023/03/16 20:21:39;;;;;;;7.87;4.40;;;;;;;;;;4962755;28;20234;-87
2023/03/16 20:24:44;;;;;;;7.30;4.80;;;;;;;;;;4973800;28;20178;-88
2023/03/16 20:27:53;;;;;;;6.93;4.83;;;;;;;;;;4973878;28;20206;-87
2023/03/16 20:30:58;;;;;;;7.83;4.40;;;;;;;;;;4962082;28;20317;-87
2023/03/16 20:34:02;;;;;;;8.43;4.80;;;;;;;;;;4984983;28;20548;-88
2023/03/16 20:37:22;;;;;;;6.00;4.67;;;;;;;;;;4962297;28;20182;-87
2023/03/16 20:40:27;;;;;;;6.63;4.80;;;;;;;;;;4973399;28;20582;-88
2023/03/16 20:43:31;;;;;;;6.63;4.70;;;;;;;;;;4973789;28;20186;-87
2023/03/16 20:46:39;;;;;;;5.60;4.40;;;;;;;;;;4973263;28;20206;-88
2023/03/16 20:49:44;;;;;;;6.40;4.90;;;;;;;;;;4972646;28;20647;-88
2023/03/16 20:52:48;;;;;;;5.90;4.40;;;;;;;;;;4973411;28;20186;-88
2023/03/16 20:55:53;;;;;;;5.87;4.70;;;;;;;;;;4973640;28;20186;-88
2023/03/16 20:58:57;;;;;;;6.37;4.77;;;;;;;;;;4972892;28;20170;-88
2023/03/16 21:02:32;;;;;;;6.83;4.27;;;;;;;;;;4961945;28;20197;-88
2023/03/16 21:05:36;;;;;;;8.27;4.73;;;;;;;;;;4972910;28;20186;-88
2023/03/16 21:08:40;;;;;;;7.00;4.70;;;;;;;;;;4972753;28;20205;-88
2023/03/16 21:11:45;;;;;;;5.97;5.17;;;;;;;;;;4972411;28;20221;-88
2023/03/16 21:14:50;;;;;;;6.00;3.93;;;;;;;;;;4972791;28;20186;-87
2023/03/16 21:18:06;;;;;;;5.40;4.07;;;;;;;;;;4972813;28;20186;-87
2023/03/16 21:21:15;;;;;;;5.43;4.10;;;;;;;;;;4983683;28;20218;-87
2023/03/16 21:24:19;;;;;;;6.77;4.40;;;;;;;;;;4972736;28;20620;-87
2023/03/16 21:27:27;;;;;;;5.17;4.23;;;;;;;;;;4961606;28;20174;-88
2023/03/16 21:30:38;;;;;;;7.83;4.67;;;;;;;;;;4983400;28;20243;-87
2023/03/16 21:33:43;;;;;;;5.17;3.67;;;;;;;;;;4983889;28;20186;-87
2023/03/16 21:36:47;;;;;;;5.20;3.97;;;;;;;;;;4972435;28;20174;-88
2023/03/16 21:39:51;;;;;;;4.70;3.60;;;;;;;;;;4961280;28;20182;-87
2023/03/16 21:42:55;;;;;;;6.80;4.10;;;;;;;;;;4961178;28;20182;-87
2023/03/16 21:45:59;;;;;;;5.73;4.23;;;;;;;;;;4972327;28;20182;-87
2023/03/16 21:49:03;;;;;;;5.37;3.80;;;;;;;;;;4971893;28;20229;-88
2023/03/16 21:52:22;;;;;;;4.80;3.90;;;;;;;;;;4971808;28;20627;-88
2023/03/16 21:55:28;;;;;;;4.93;4.00;;;;;;;;;;4971903;28;20186;-88
2023/03/16 21:58:32;;;;;;;5.03;3.73;;;;;;;;;;4971924;28;20182;-88
2023/03/16 22:01:38;;;;;;;9.30;3.77;;;;;;;;;;4960453;28;20607;-88
2023/03/16 22:04:43;;;;;;;6.67;3.97;;;;;;;;;;4972059;28;20182;-87
2023/03/16 22:07:48;;;;;;;4.70;3.60;;;;;;;;;;4960684;28;20563;-87
2023/03/16 22:10:52;;;;;;;6.47;3.53;;;;;;;;;;4961216;28;20209;-87
2023/03/16 22:13:58;;;;;;;7.07;4.00;;;;;;;;;;4960440;28;20228;-87
2023/03/16 22:17:02;;;;;;;5.33;4.00;;;;;;;;;;4972053;28;20178;-87
2023/03/16 22:20:19;;;;;;;5.13;4.00;;;;;;;;;;4971403;28;20210;-87
2023/03/16 22:23:33;;;;;;;4.77;3.60;;;;;;;;;;4971450;28;20198;-88
2023/03/16 22:26:38;;;;;;;5.70;3.63;;;;;;;;;;4982532;28;20194;-88
2023/03/16 22:29:43;;;;;;;5.03;3.70;;;;;;;;;;4971507;28;20226;-87
2023/03/16 22:32:53;;;;;;;4.97;3.83;;;;;;;;;;4971602;28;20182;-87
2023/03/16 22:36:02;;;;;;;4.13;3.53;;;;;;;;;;4971135;28;20190;-88
2023/03/16 22:39:11;;;;;;;5.87;3.70;;;;;;;;;;4971339;28;20194;-88
2023/03/16 22:42:18;;;;;;;6.00;3.83;;;;;;;;;;4971047;28;20559;-87
2023/03/16 22:45:25;;;;;;;5.53;3.47;;;;;;;;;;4970857;28;20193;-87
2023/03/16 22:48:30;;;;;;;5.33;3.13;;;;;;;;;;4971112;28;20210;-87
2023/03/16 22:51:36;;;;;;;4.33;3.43;;;;;;;;;;4971026;28;20222;-87
2023/03/16 22:54:41;;;;;;;5.00;3.67;;;;;;;;;;4960230;28;20632;-87
2023/03/16 22:57:46;;;;;;;4.97;4.00;;;;;;;;;;4959939;28;20189;-87
2023/03/16 23:00:50;;;;;;;4.63;3.60;;;;;;;;;;4970826;28;20667;-87
2023/03/16 23:03:54;;;;;;;7.53;3.43;;;;;;;;;;4960314;28;20174;-87
2023/03/16 23:06:58;;;;;;;4.30;3.10;;;;;;;;;;4960087;28;20178;-87
2023/03/16 23:10:02;;;;;;;4.67;3.47;;;;;;;;;;4960026;28;20226;-87
2023/03/16 23:13:22;;;;;;;4.33;3.30;;;;;;;;;;4960021;28;20198;-87
2023/03/16 23:16:28;;;;;;;6.40;3.50;;;;;;;;;;4970947;28;20187;-87
2023/03/16 23:19:33;;;;;;;5.73;3.53;;;;;;;;;;4959834;28;20178;-87
2023/03/16 23:22:39;;;;;;;5.23;3.60;;;;;;;;;;4970749;28;20178;-87
2023/03/16 23:25:45;;;;;;;5.03;3.67;;;;;;;;;;4971085;28;20182;-87
2023/03/16 23:28:51;;;;;;;5.40;3.60;;;;;;;;;;4974853;28;20210;-87
2023/03/16 23:31:55;;;;;;;5.80;3.50;;;;;;;;;;4974271;28;20221;-87
2023/03/16 23:34:59;;;;;;;6.57;3.73;;;;;;;;;;4963289;28;20609;-87
2023/03/16 23:38:03;;;;;;;5.40;3.67;;;;;;;;;;4974665;28;20549;-87
2023/03/16 23:41:11;;;;;;;5.00;3.33;;;;;;;;;;4974585;28;20621;-87
2023/03/16 23:44:22;;;;;;;7.13;3.00;;;;;;;;;;4974123;28;20547;-87
2023/03/16 23:47:25;;;;;;;5.90;3.20;;;;;;;;;;4974067;28;20601;-87
2023/03/16 23:50:34;;;;;;;3.43;3.00;;;;;;;;;;4963232;28;20664;-87
2023/03/16 23:53:39;;;;;;;5.23;3.33;;;;;;;;;;4974281;28;20541;-87
2023/03/16 23:56:43;;;;;;;4.37;3.07;;;;;;;;;;4974689;28;21069;-87
2023/03/16 23:59:47;;;;;;;5.63;3.20;;;;;;;;;;4962884;28;21101;-88
